createdAt,value
2018-01-07T11:44:52.968Z,35.93
2018-01-07T11:47:20.221Z,35.00
2018-01-07T11:49:47.444Z,40.37
2018-01-07T11:52:14.660Z,32.67
2018-01-07T11:54:41.951Z,35.53
2018-01-07T11:57:09.464Z,31.80
2018-01-07T11:59:36.720Z,33.10
2018-01-07T12:02:04.177Z,29.33
2018-01-07T12:04:32.097Z,40.67
2018-01-07T12:06:59.361Z,35.10
2018-01-07T12:09:27.322Z,38.67
2018-01-07T12:11:54.560Z,19.83
2018-01-07T12:14:21.842Z,28.63
2018-01-07T12:16:49.067Z,24.73
2018-01-07T12:19:20.045Z,30.40
2018-01-07T12:21:47.417Z,34.70
2018-01-07T12:24:14.922Z,33.13
2018-01-07T12:26:42.836Z,29.60
2018-01-07T12:29:11.828Z,32.60
2018-01-07T12:31:39.555Z,35.43
2018-01-07T12:34:07.926Z,23.73
2018-01-07T12:36:35.184Z,21.60
2018-01-07T12:39:02.447Z,25.03
2018-01-07T12:41:29.693Z,27.13
2018-01-07T12:43:57.146Z,32.43
2018-01-07T12:46:24.371Z,27.23
2018-01-07T12:48:51.750Z,22.40
2018-01-07T12:51:18.976Z,30.47
2018-01-07T12:53:47.320Z,30.27
2018-01-07T12:56:14.574Z,30.17
2018-01-07T12:58:41.785Z,29.23
2018-01-07T13:01:09.024Z,28.57
2018-01-07T13:03:36.240Z,30.57
2018-01-07T13:06:03.470Z,30.50
2018-01-07T13:08:30.782Z,37.47
2018-01-07T13:10:58.014Z,28.43
2018-01-07T13:13:25.432Z,36.40
2018-01-07T13:15:52.650Z,26.67
2018-01-07T13:18:19.888Z,34.10
2018-01-07T13:20:47.122Z,32.90
2018-01-07T13:23:14.387Z,33.40
2018-01-07T13:25:41.610Z,29.13
2018-01-07T13:28:09.753Z,30.60
2018-01-07T13:30:37.030Z,35.57
2018-01-07T13:33:04.292Z,32.13
2018-01-07T13:35:31.517Z,33.30
2018-01-07T13:37:58.753Z,38.77
2018-01-07T13:40:26.726Z,38.27
2018-01-07T13:42:55.099Z,40.30
2018-01-07T13:45:22.333Z,46.73
2018-01-07T13:47:49.566Z,44.13
2018-01-07T13:50:16.801Z,37.53
2018-01-07T13:52:44.025Z,38.17
2018-01-07T13:55:11.272Z,46.37
2018-01-07T13:57:38.561Z,41.20
2018-01-07T14:00:09.203Z,38.27
2018-01-07T14:02:36.469Z,34.23
2018-01-07T14:05:06.496Z,31.30
2018-01-07T14:07:33.721Z,35.60
2018-01-07T14:10:01.060Z,34.60
2018-01-07T14:12:28.463Z,37.93
2018-01-07T14:14:55.681Z,41.60
2018-01-07T14:17:22.908Z,40.17
2018-01-07T14:19:50.141Z,34.63
2018-01-07T14:22:17.368Z,38.23
2018-01-07T14:24:44.581Z,37.37
2018-01-07T14:27:11.800Z,42.50
2018-01-07T14:29:39.024Z,39.83
2018-01-07T14:32:06.237Z,34.00
2018-01-07T14:34:33.477Z,33.70
2018-01-07T14:37:02.232Z,37.90
2018-01-07T14:39:29.452Z,39.53
2018-01-07T14:41:57.540Z,38.03
2018-01-07T14:44:24.760Z,38.00
2018-01-07T14:46:51.996Z,38.70
2018-01-07T14:49:19.322Z,40.97
2018-01-07T14:51:47.241Z,36.90
2018-01-07T14:54:14.924Z,40.50
2018-01-07T14:56:41.836Z,36.23
2018-01-07T14:59:09.393Z,38.00
2018-01-07T15:01:37.109Z,39.67
2018-01-07T15:04:04.385Z,45.70
2018-01-07T15:06:31.617Z,38.37
2018-01-07T15:08:58.937Z,39.23
2018-01-07T15:11:26.164Z,42.20
2018-01-07T15:13:53.904Z,40.53
2018-01-07T15:16:21.573Z,38.93
2018-01-07T15:18:48.803Z,39.53
2018-01-07T15:21:16.017Z,45.03
2018-01-07T15:23:43.257Z,42.10
2018-01-07T15:26:10.475Z,50.27
2018-01-07T15:28:37.698Z,48.43
2018-01-07T15:31:05.640Z,44.67
2018-01-07T15:33:32.851Z,57.90
2018-01-07T15:36:00.098Z,44.63
2018-01-07T15:38:27.341Z,51.00
2018-01-07T15:40:54.563Z,39.67
2018-01-07T15:43:21.462Z,49.03
2018-01-07T15:45:48.351Z,44.53
2018-01-07T15:48:15.244Z,47.10
2018-01-07T15:50:42.523Z,38.60
2018-01-07T15:53:09.740Z,41.17
2018-01-07T15:55:37.154Z,43.63
2018-01-07T15:58:04.609Z,35.30
2018-01-07T16:00:31.837Z,36.50
2018-01-07T16:02:59.087Z,40.07
2018-01-07T16:05:26.980Z,39.30
2018-01-07T16:07:55.300Z,49.30
2018-01-07T16:10:22.526Z,46.33
2018-01-07T16:12:50.007Z,40.87
2018-01-07T16:15:17.771Z,37.70
2018-01-07T16:17:45.000Z,47.53
2018-01-07T16:20:14.909Z,46.50
2018-01-07T16:22:42.132Z,41.00
2018-01-07T16:25:09.457Z,46.43
2018-01-07T16:27:36.871Z,48.20
2018-01-07T16:30:04.351Z,46.13
2018-01-07T16:32:31.570Z,45.00
2018-01-07T16:34:58.824Z,45.40
2018-01-07T16:37:26.070Z,46.33
2018-01-07T16:39:53.290Z,47.27
2018-01-07T16:42:20.526Z,50.77
2018-01-07T16:44:47.766Z,48.03
2018-01-07T16:47:15.007Z,46.70
2018-01-07T16:49:42.405Z,43.43
2018-01-07T16:52:09.785Z,46.90
2018-01-07T16:54:37.181Z,43.20
2018-01-07T16:57:04.652Z,42.27
2018-01-07T16:59:31.875Z,42.13
2018-01-07T17:01:59.367Z,40.77
2018-01-07T17:04:26.597Z,56.83
2018-01-07T17:06:55.014Z,50.03
2018-01-07T17:09:22.456Z,49.60
2018-01-07T17:11:49.710Z,45.57
2018-01-07T17:14:17.124Z,53.77
2018-01-07T17:16:44.359Z,48.17
2018-01-07T17:19:11.605Z,44.40
2018-01-07T17:21:38.834Z,39.50
2018-01-07T17:24:06.267Z,46.53
2018-01-07T17:26:33.521Z,41.10
2018-01-07T17:29:00.750Z,43.53
2018-01-07T17:31:28.003Z,37.07
2018-01-07T17:33:55.242Z,44.67
2018-01-07T17:36:22.470Z,44.80
2018-01-07T17:38:52.155Z,52.67
2018-01-07T17:41:19.577Z,69.37
2018-01-07T17:43:47.939Z,67.03
2018-01-07T17:46:16.021Z,67.77
2018-01-07T17:48:43.321Z,74.90
2018-01-07T17:51:10.570Z,74.93
2018-01-07T17:53:37.833Z,70.20
2018-01-07T17:56:05.092Z,75.90
2018-01-07T17:58:32.365Z,68.07
2018-01-07T18:00:59.602Z,77.37
2018-01-07T18:03:26.846Z,78.50
2018-01-07T18:05:55.186Z,69.50
2018-01-07T18:08:23.548Z,69.97
2018-01-07T18:10:50.791Z,72.37
2018-01-07T18:13:18.033Z,69.40
2018-01-07T18:15:45.961Z,69.27
2018-01-07T18:18:13.074Z,78.80
2018-01-07T18:20:40.294Z,69.93
2018-01-07T18:23:07.523Z,65.23
2018-01-07T18:25:34.745Z,76.03
2018-01-07T18:28:01.970Z,61.77
2018-01-07T18:30:29.994Z,73.03
2018-01-07T18:32:57.237Z,63.83
2018-01-07T18:35:24.476Z,71.30
2018-01-07T18:37:51.688Z,61.60
2018-01-07T18:40:19.037Z,71.20
2018-01-07T18:42:46.645Z,65.20
2018-01-07T18:45:13.951Z,63.80
2018-01-07T18:47:41.224Z,63.93
2018-01-07T18:50:11.768Z,68.73
2018-01-07T18:52:39.001Z,66.93
2018-01-07T18:55:14.929Z,70.97
2018-01-07T18:57:42.376Z,63.30
2018-01-07T19:00:11.098Z,69.73
2018-01-07T19:02:38.330Z,56.97
2018-01-07T19:05:09.765Z,63.23
2018-01-07T19:07:36.989Z,56.20
2018-01-07T19:10:08.913Z,51.47
2018-01-07T19:12:36.138Z,48.73
2018-01-07T19:15:14.561Z,49.75
2018-01-07T19:17:42.401Z,50.83
2018-01-07T19:20:14.817Z,64.33
2018-01-07T19:22:42.077Z,55.30
2018-01-07T19:25:12.083Z,51.70
2018-01-07T19:27:45.615Z,50.37
2018-01-07T19:30:13.325Z,49.40
2018-01-07T19:32:40.641Z,50.77
2018-01-07T19:35:14.231Z,48.87
2018-01-07T19:37:46.241Z,47.77
2018-01-07T19:40:13.561Z,50.00
2018-01-07T19:42:40.875Z,43.37
2018-01-07T19:45:13.871Z,48.47
2018-01-07T19:47:44.028Z,43.33
2018-01-07T19:50:12.458Z,51.70
2018-01-07T19:52:39.709Z,44.77
2018-01-07T19:55:13.647Z,52.03
2018-01-07T19:57:41.981Z,56.83
2018-01-07T20:00:12.092Z,46.40
2018-01-07T20:02:39.315Z,46.90
2018-01-07T20:05:08.942Z,44.47
2018-01-07T20:07:36.303Z,45.80
2018-01-07T20:10:06.112Z,47.20
2018-01-07T20:12:40.375Z,47.00
2018-01-07T20:15:14.071Z,42.77
2018-01-07T20:17:41.385Z,46.87
2018-01-07T20:20:15.483Z,53.87
2018-01-07T20:22:42.947Z,54.57
2018-01-07T20:25:13.813Z,44.23
2018-01-07T20:27:41.450Z,44.40
2018-01-07T20:30:15.163Z,49.30
2018-01-07T20:32:42.537Z,51.43
2018-01-07T20:35:12.755Z,46.77
2018-01-07T20:37:40.040Z,52.97
2018-01-07T20:40:17.151Z,50.87
2018-01-07T20:42:44.372Z,44.23
2018-01-07T20:45:15.326Z,50.57
2018-01-07T20:47:42.548Z,50.80
2018-01-07T20:50:10.930Z,45.63
2018-01-07T20:52:38.141Z,45.27
2018-01-07T20:55:13.871Z,48.80
2018-01-07T20:57:41.297Z,48.73
2018-01-07T21:00:16.837Z,53.30
2018-01-07T21:02:44.061Z,50.33
2018-01-07T21:05:13.756Z,47.47
2018-01-07T21:07:41.003Z,48.00
2018-01-07T21:10:14.809Z,48.17
2018-01-07T21:12:43.418Z,62.93
2018-01-07T21:15:16.180Z,50.90
2018-01-07T21:17:43.442Z,48.77
2018-01-07T21:20:10.949Z,44.93
2018-01-07T21:22:38.191Z,50.20
2018-01-07T21:25:15.144Z,51.63
2018-01-07T21:27:42.390Z,52.13
2018-01-07T21:30:14.117Z,49.77
2018-01-07T21:32:41.346Z,49.40
2018-01-07T21:35:11.940Z,46.53
2018-01-07T21:37:39.692Z,50.93
2018-01-07T21:40:14.592Z,44.80
2018-01-07T21:42:41.801Z,52.83
2018-01-07T21:45:12.919Z,44.57
2018-01-07T21:47:41.372Z,53.30
2018-01-07T21:50:15.358Z,59.63
2018-01-07T21:52:42.584Z,52.40
2018-01-07T21:55:14.938Z,50.83
2018-01-07T21:57:42.152Z,51.37
2018-01-07T22:00:30.129Z,50.17
2018-01-07T22:02:57.978Z,59.97
2018-01-07T22:05:24.889Z,58.60
2018-01-07T22:07:52.129Z,52.53
2018-01-07T22:10:19.531Z,60.77
2018-01-07T22:12:46.432Z,60.80
2018-01-07T22:15:14.814Z,59.97
2018-01-07T22:17:42.929Z,55.50
2018-01-07T22:22:56.545Z,65.47
2018-01-07T22:25:28.525Z,62.20
2018-01-07T22:27:55.739Z,74.20
2018-01-07T22:30:22.956Z,61.73
2018-01-07T22:32:51.150Z,67.13
2018-01-07T22:35:18.387Z,64.43
2018-01-07T22:37:45.594Z,63.90
2018-01-07T22:40:12.818Z,74.50
2018-01-07T22:42:40.057Z,66.87
2018-01-07T22:45:09.701Z,62.43
2018-01-07T22:47:43.196Z,61.43
2018-01-07T22:50:10.461Z,58.13
2018-01-07T22:52:37.756Z,61.90
2018-01-07T22:55:08.667Z,69.40
2018-01-07T22:57:35.986Z,62.10
2018-01-07T23:00:08.841Z,61.60
2018-01-07T23:02:36.107Z,60.90
2018-01-07T23:05:13.744Z,60.83
2018-01-07T23:07:41.033Z,66.60
2018-01-07T23:10:14.582Z,66.82
2018-01-07T23:12:41.805Z,75.97
2018-01-07T23:15:08.807Z,65.50
2018-01-07T23:17:36.764Z,70.47
2018-01-07T23:20:09.624Z,74.53
2018-01-07T23:22:37.077Z,80.33
2018-01-07T23:25:07.494Z,93.73
2018-01-07T23:27:34.775Z,85.13
2018-01-07T23:30:02.000Z,85.07
2018-01-07T23:32:29.273Z,94.57
2018-01-07T23:34:56.497Z,83.03
2018-01-07T23:37:23.396Z,90.87
2018-01-07T23:39:50.621Z,87.07
2018-01-07T23:42:17.873Z,89.30
2018-01-07T23:44:46.089Z,104.67
2018-01-07T23:47:13.636Z,103.70
2018-01-07T23:49:40.862Z,101.17
2018-01-07T23:52:08.082Z,95.83
2018-01-07T23:54:35.296Z,101.67
2018-01-07T23:57:02.533Z,100.53
2018-01-07T23:59:30.885Z,94.73
